HAAB/ADD METAR and TAF weather

Enter ICAO airport designator
Station Type Date Time Source
HAAB METAR 2020/07/08 00:00 UTC NOAA

HAAB 080000Z 25006KT 9999 BKSCT025 BKN080 14/12 Q1024


Station Type Date Time Source
HAAB Decoded METAR 2020/07/08 00:00 UTC NOAA

Addis Ababa, Ethiopia (HAAB) 08-59N 038-48E 2324M
Jul 07, 2020 - 08:00 PM EDT / 2020.07.08 0000 UTC
Wind: from the WSW (250 degrees) at 7 MPH (6 KT):0
Visibility: greater than 7 mile(s):0
Sky conditions: mostly cloudy
Temperature: 57 F (14 C)
Dew Point: 53 F (12 C)
Relative Humidity: 87%
Pressure (altimeter): 30.24 in. Hg (1024 hPa)
ob: HAAB 080000Z 25006KT 9999 BKSCT025 BKN080 14/12 Q1024
cycle: 0

Station Type Date Time Source
HAAB TAF 2020/07/07 12:48 UTC NOAA

TAF TAF HAAB 070930Z 0712/0818 36004KT 8000 BKN025 SCT080
BECMG 0714/0716 12005KT 6000 SHRA BKN020 SCT070

Example: see airport list